createdAt,value
2018-06-19T00:01:15.837Z,47.35
2018-06-19T00:03:44.315Z,47.41
2018-06-19T00:06:12.928Z,47.15
2018-06-19T00:08:41.880Z,47.31
2018-06-19T00:11:11.334Z,46.51
2018-06-19T00:13:40.033Z,46.99
2018-06-19T00:16:08.684Z,47.28
2018-06-19T00:18:41.875Z,46.69
2018-06-19T00:21:14.021Z,46.57
2018-06-19T00:23:42.780Z,46.82
2018-06-19T00:26:12.202Z,46.77
2018-06-19T00:28:44.712Z,47.24
2018-06-19T00:31:13.519Z,47.18
2018-06-19T00:33:41.990Z,47.21
2018-06-19T00:36:10.502Z,47.09
2018-06-19T00:38:39.153Z,46.62
2018-06-19T00:41:07.616Z,46.79
2018-06-19T00:43:36.533Z,46.99
2018-06-19T00:46:06.571Z,46.54
2018-06-19T00:48:35.252Z,47.21
2018-06-19T00:51:03.759Z,47.06
2018-06-19T00:53:33.209Z,46.39
2018-06-19T00:56:13.162Z,47.15
2018-06-19T00:58:42.872Z,46.90
2018-06-19T01:01:11.629Z,46.33
2018-06-19T01:03:40.112Z,46.79
2018-06-19T01:06:08.833Z,46.90
2018-06-19T01:08:38.095Z,46.66
2018-06-19T01:11:06.614Z,46.94
2018-06-19T01:13:36.378Z,46.17
2018-06-19T01:16:05.158Z,46.64
2018-06-19T01:18:33.693Z,46.91
2018-06-19T01:21:02.821Z,46.23
2018-06-19T01:23:31.426Z,46.92
2018-06-19T01:25:59.867Z,46.37
2018-06-19T01:28:29.270Z,46.80
2018-06-19T01:30:57.795Z,46.89
2018-06-19T01:33:26.261Z,46.34
2018-06-19T01:35:54.960Z,46.14
2018-06-19T01:38:23.547Z,46.78
2018-06-19T01:40:52.106Z,46.83
2018-06-19T01:43:21.326Z,46.23
2018-06-19T01:45:50.452Z,46.80
2018-06-19T01:48:19.070Z,46.59
2018-06-19T01:50:48.341Z,46.09
2018-06-19T01:53:16.771Z,46.69
2018-06-19T01:55:45.196Z,46.31
2018-06-19T01:58:13.733Z,46.83
2018-06-19T02:00:46.325Z,46.73
2018-06-19T02:03:14.914Z,46.06
2018-06-19T02:05:43.429Z,46.80
2018-06-19T02:08:11.955Z,46.08
2018-06-19T02:10:40.460Z,46.80
2018-06-19T02:13:09.840Z,45.98
2018-06-19T02:15:38.340Z,46.76
2018-06-19T02:18:07.603Z,45.99
2018-06-19T02:20:36.079Z,46.74
2018-06-19T02:23:04.702Z,45.87
2018-06-19T02:25:33.524Z,46.03
2018-06-19T02:28:02.661Z,45.97
2018-06-19T02:30:36.036Z,46.48
2018-06-19T02:33:04.459Z,46.63
2018-06-19T02:35:32.999Z,45.59
2018-06-19T02:38:01.514Z,46.33
2018-06-19T02:40:30.148Z,45.83
2018-06-19T02:42:59.452Z,45.91
2018-06-19T02:45:28.249Z,45.80
2018-06-19T02:47:57.395Z,45.59
2018-06-19T02:50:26.460Z,45.74
2018-06-19T02:52:55.008Z,45.82
2018-06-19T02:55:23.667Z,46.57
2018-06-19T02:57:52.137Z,46.51
2018-06-19T03:00:21.675Z,46.21
2018-06-19T03:02:51.578Z,45.73
2018-06-19T03:05:20.997Z,46.04
2018-06-19T03:07:49.462Z,45.85
2018-06-19T03:10:18.345Z,46.11
2018-06-19T03:12:47.450Z,46.08
2018-06-19T03:15:16.033Z,46.21
2018-06-19T03:17:44.571Z,46.51
2018-06-19T03:20:13.053Z,46.47
2018-06-19T03:22:41.560Z,45.77
2018-06-19T03:25:10.378Z,46.41
2018-06-19T03:27:38.851Z,45.69
2018-06-19T03:30:09.345Z,46.50
2018-06-19T03:32:37.892Z,45.83
2018-06-19T03:35:06.407Z,46.44
2018-06-19T03:37:35.942Z,45.44
2018-06-19T03:40:04.421Z,46.43
2018-06-19T03:42:32.950Z,46.41
2018-06-19T03:45:01.887Z,46.02
2018-06-19T03:47:30.357Z,46.47
2018-06-19T03:50:00.624Z,46.27
2018-06-19T03:52:29.197Z,46.04
2018-06-19T03:54:57.649Z,46.36
2018-06-19T03:57:26.101Z,45.75
2018-06-19T03:59:55.190Z,45.56
2018-06-19T04:02:23.983Z,46.37
2018-06-19T04:04:52.571Z,45.63
2018-06-19T04:07:21.556Z,45.63
2018-06-19T04:09:49.961Z,45.55
2018-06-19T04:12:20.057Z,45.50
2018-06-19T04:14:48.785Z,46.16
2018-06-19T04:17:21.545Z,46.28
2018-06-19T04:19:50.317Z,46.22
2018-06-19T04:22:18.934Z,45.49
2018-06-19T04:24:47.505Z,45.47
2018-06-19T04:27:15.977Z,46.30
2018-06-19T04:29:44.422Z,45.39
2018-06-19T04:32:12.989Z,45.53
2018-06-19T04:34:41.484Z,45.48
2018-06-19T04:37:09.962Z,46.13
2018-06-19T04:39:38.441Z,46.07
2018-06-19T04:42:07.694Z,45.71
2018-06-19T04:44:36.288Z,45.38
2018-06-19T04:47:04.753Z,45.94
2018-06-19T04:49:33.271Z,45.68
2018-06-19T04:52:02.749Z,45.45
2018-06-19T04:54:31.292Z,46.18
2018-06-19T04:57:00.098Z,45.78
2018-06-19T04:59:29.153Z,46.20
2018-06-19T05:01:57.602Z,45.95
2018-06-19T05:04:26.300Z,46.31
2018-06-19T05:06:55.065Z,46.57
2018-06-19T05:09:23.481Z,45.90
2018-06-19T05:11:51.926Z,46.42
2018-06-19T05:14:20.552Z,46.11
2018-06-19T05:16:48.968Z,45.77
2018-06-19T05:19:19.444Z,45.94
2018-06-19T05:21:48.169Z,45.71
2018-06-19T05:24:16.759Z,44.55
2018-06-19T05:26:45.317Z,45.26
2018-06-19T05:29:15.599Z,45.49
2018-06-19T05:31:44.053Z,44.95
2018-06-19T05:34:12.712Z,44.72
2018-06-19T05:36:41.248Z,44.78
2018-06-19T05:39:11.626Z,45.87
2018-06-19T05:41:40.344Z,45.06
2018-06-19T05:44:10.013Z,46.09
2018-06-19T05:46:38.850Z,46.28
2018-06-19T05:49:07.894Z,45.39
2018-06-19T05:51:36.393Z,45.81
2018-06-19T05:54:05.025Z,45.29
2018-06-19T05:56:33.672Z,45.17
2018-06-19T05:59:02.111Z,45.38
2018-06-19T06:01:30.550Z,45.46
2018-06-19T06:03:59.332Z,45.73
2018-06-19T06:06:29.171Z,45.28
2018-06-19T06:08:57.706Z,45.78
2018-06-19T06:11:26.417Z,44.93
2018-06-19T06:13:55.007Z,44.92
2018-06-19T06:16:23.624Z,45.00
2018-06-19T06:18:52.067Z,44.94
2018-06-19T06:21:21.014Z,45.30
2018-06-19T06:23:49.548Z,45.31
2018-06-19T06:26:18.062Z,44.84
2018-06-19T06:28:47.006Z,44.80
2018-06-19T06:31:15.538Z,44.76
2018-06-19T06:33:44.857Z,44.77
2018-06-19T06:36:13.420Z,44.85
2018-06-19T06:38:42.775Z,44.98
2018-06-19T06:41:11.232Z,44.77
2018-06-19T06:43:39.883Z,45.64
2018-06-19T06:46:08.390Z,45.30
2018-06-19T06:48:37.042Z,44.80
2018-06-19T06:51:06.053Z,45.35
2018-06-19T06:53:34.606Z,45.44
2018-06-19T06:56:03.649Z,44.84
2018-06-19T06:58:32.117Z,45.51
2018-06-19T07:01:00.559Z,45.69
2018-06-19T07:03:29.300Z,44.72
2018-06-19T07:05:57.764Z,45.44
2018-06-19T07:08:26.322Z,45.56
2018-06-19T07:10:54.824Z,45.63
2018-06-19T07:13:23.638Z,45.31
2018-06-19T07:15:52.279Z,45.48
2018-06-19T07:18:20.753Z,44.85
2018-06-19T07:20:49.499Z,45.52
2018-06-19T07:23:18.010Z,45.46
2018-06-19T07:25:46.584Z,45.23
2018-06-19T07:28:15.031Z,44.92
2018-06-19T07:30:43.503Z,44.88
2018-06-19T07:33:12.630Z,45.72
2018-06-19T07:35:41.700Z,44.97
2018-06-19T07:38:10.702Z,45.02
2018-06-19T07:40:39.077Z,45.71
2018-06-19T07:43:08.027Z,45.53
2018-06-19T07:45:36.645Z,45.80
2018-06-19T07:48:05.101Z,45.08
2018-06-19T07:50:33.591Z,45.74
2018-06-19T07:53:02.084Z,45.71
2018-06-19T07:55:30.689Z,45.82
2018-06-19T07:57:59.214Z,45.50
2018-06-19T08:00:35.511Z,45.72
2018-06-19T08:03:03.917Z,45.18
2018-06-19T08:05:32.952Z,45.62
2018-06-19T08:08:02.270Z,45.23
2018-06-19T08:10:30.737Z,45.67
2018-06-19T08:13:00.432Z,45.85
2018-06-19T08:15:29.016Z,45.09
2018-06-19T08:17:58.079Z,45.11
2018-06-19T08:20:28.433Z,45.08
2018-06-19T08:22:57.100Z,45.66
2018-06-19T08:25:27.271Z,45.87
2018-06-19T08:27:55.941Z,45.97
2018-06-19T08:30:29.559Z,45.47
2018-06-19T08:32:58.165Z,45.34
2018-06-19T08:35:26.787Z,45.14
2018-06-19T08:37:55.312Z,46.00
2018-06-19T08:40:23.907Z,45.88
2018-06-19T08:42:52.713Z,45.14
2018-06-19T08:45:21.789Z,45.19
2018-06-19T08:47:50.238Z,45.82
2018-06-19T08:50:18.902Z,45.92
2018-06-19T08:52:47.425Z,45.17
2018-06-19T08:55:16.163Z,45.23
2018-06-19T08:57:44.594Z,45.38
2018-06-19T09:00:13.317Z,45.39
2018-06-19T09:02:41.843Z,46.10
2018-06-19T09:05:10.469Z,46.11
2018-06-19T09:07:38.978Z,45.40
2018-06-19T09:10:07.480Z,45.99
2018-06-19T09:12:35.964Z,46.15
2018-06-19T09:15:04.500Z,45.50
2018-06-19T09:17:32.935Z,45.76
2018-06-19T09:20:02.182Z,46.18
2018-06-19T09:22:31.699Z,45.92
2018-06-19T09:25:00.156Z,45.57
2018-06-19T09:27:28.780Z,45.53
2018-06-19T09:29:57.705Z,45.50
2018-06-19T09:32:27.069Z,46.19
2018-06-19T09:34:55.767Z,46.41
2018-06-19T09:37:24.295Z,45.60
2018-06-19T09:39:52.803Z,46.63
2018-06-19T09:42:21.347Z,45.71
2018-06-19T09:44:50.773Z,45.71
2018-06-19T09:47:19.358Z,45.61
2018-06-19T09:49:47.809Z,46.14
2018-06-19T09:52:16.442Z,45.74
2018-06-19T09:54:45.050Z,45.88
2018-06-19T09:57:14.329Z,46.58
2018-06-19T09:59:43.335Z,46.36
2018-06-19T10:02:12.258Z,46.56
2018-06-19T10:04:40.730Z,46.28
2018-06-19T10:07:09.309Z,46.59
2018-06-19T10:09:37.796Z,45.85
2018-06-19T10:12:06.335Z,45.85
2018-06-19T10:14:34.781Z,45.88
2018-06-19T10:17:03.308Z,45.83
2018-06-19T10:19:32.668Z,45.78
2018-06-19T10:22:01.130Z,45.86
2018-06-19T10:24:29.901Z,46.31
2018-06-19T10:26:59.036Z,46.47
2018-06-19T10:29:27.510Z,46.52
2018-06-19T10:31:56.189Z,46.04
2018-06-19T10:34:24.712Z,46.58
2018-06-19T10:36:53.467Z,46.73
2018-06-19T10:39:21.915Z,45.78
2018-06-19T10:41:50.493Z,46.74
2018-06-19T10:44:19.112Z,45.98
2018-06-19T10:46:47.960Z,46.48
2018-06-19T10:49:16.391Z,45.92
2018-06-19T10:51:44.893Z,45.89
2018-06-19T10:54:13.357Z,46.82
2018-06-19T10:56:42.434Z,46.02
2018-06-19T10:59:11.458Z,46.55
2018-06-19T11:01:39.934Z,46.02
2018-06-19T11:04:08.410Z,46.20
2018-06-19T11:06:38.473Z,46.00
2018-06-19T11:09:08.794Z,46.06
2018-06-19T11:11:38.312Z,46.22
2018-06-19T11:14:06.851Z,46.54
2018-06-19T11:16:35.529Z,46.15
2018-06-19T11:19:04.189Z,46.00
2018-06-19T11:21:32.631Z,46.66
2018-06-19T11:24:01.536Z,46.13
2018-06-19T11:26:30.073Z,45.97
2018-06-19T11:28:58.657Z,46.65
2018-06-19T11:31:27.226Z,46.28
2018-06-19T11:33:57.063Z,46.76
2018-06-19T11:36:25.535Z,46.04
2018-06-19T11:38:54.114Z,46.10
2018-06-19T11:41:23.103Z,46.82
2018-06-19T11:43:51.801Z,46.64
2018-06-19T11:46:20.487Z,46.34
2018-06-19T11:48:49.050Z,46.35
2018-06-19T11:51:17.616Z,46.24
2018-06-19T11:53:46.089Z,46.24
2018-06-19T11:56:14.765Z,46.16
2018-06-19T11:58:43.325Z,46.98
2018-06-19T12:01:11.871Z,47.07
2018-06-19T12:03:40.294Z,46.33
2018-06-19T12:06:08.845Z,47.07
2018-06-19T12:08:37.368Z,47.26
2018-06-19T12:11:05.920Z,46.37
2018-06-19T12:13:34.527Z,46.68
2018-06-19T12:16:03.090Z,46.31
2018-06-19T12:18:31.808Z,46.77
2018-06-19T12:21:00.240Z,46.39
2018-06-19T12:23:28.715Z,46.90
2018-06-19T12:25:57.315Z,46.36
2018-06-19T12:28:26.193Z,47.15
2018-06-19T12:30:54.851Z,46.42
2018-06-19T12:33:23.849Z,47.07
2018-06-19T12:35:52.357Z,46.44
2018-06-19T12:38:20.886Z,46.45
2018-06-19T12:40:49.474Z,46.49
2018-06-19T12:43:18.013Z,46.54
2018-06-19T12:45:46.513Z,46.41
2018-06-19T12:48:15.075Z,46.73
2018-06-19T12:51:57.865Z,46.82
2018-06-19T12:55:37.211Z,47.06
2018-06-19T12:58:05.749Z,47.21
2018-06-19T13:00:34.289Z,47.04
2018-06-19T13:03:14.088Z,46.53
2018-06-19T13:05:53.661Z,47.15
2018-06-19T13:08:23.109Z,46.46
2018-06-19T13:10:52.293Z,46.49
2018-06-19T13:14:36.977Z,47.25
2018-06-19T13:17:16.578Z,46.48
2018-06-19T13:19:56.494Z,47.17
2018-06-19T13:22:24.945Z,46.81
2018-06-19T13:24:53.673Z,46.44
2018-06-19T13:27:22.154Z,46.51
2018-06-19T13:30:03.193Z,47.39
2018-06-19T13:32:33.341Z,47.24
2018-06-19T13:35:01.801Z,46.80
2018-06-19T13:37:31.058Z,46.72
2018-06-19T13:41:15.821Z,47.31
2018-06-19T13:43:56.111Z,47.20
2018-06-19T13:46:24.803Z,47.41
2018-06-19T13:48:53.376Z,47.26
2018-06-19T13:51:22.671Z,47.00
2018-06-19T13:53:51.165Z,47.13
2018-06-19T13:57:35.831Z,46.85
2018-06-19T14:00:08.622Z,46.96
2018-06-19T14:02:37.104Z,47.62
2018-06-19T14:05:06.215Z,47.68
2018-06-19T14:07:40.324Z,47.72
2018-06-19T14:10:24.794Z,47.37
2018-06-19T14:12:57.390Z,48.14
2018-06-19T14:15:26.470Z,48.02
2018-06-19T14:17:55.023Z,47.32
2018-06-19T14:20:23.793Z,47.22
2018-06-19T14:22:52.302Z,47.74
2018-06-19T14:25:21.997Z,47.45
2018-06-19T14:27:50.789Z,47.33
2018-06-19T14:30:21.315Z,47.95
2018-06-19T14:32:50.098Z,47.57
2018-06-19T14:35:18.872Z,47.92
2018-06-19T14:37:47.397Z,48.47
2018-06-19T14:40:16.956Z,47.91
2018-06-19T14:42:45.413Z,48.40
2018-06-19T14:45:14.031Z,47.54
2018-06-19T14:47:43.621Z,48.27
2018-06-19T14:50:13.380Z,47.72
2018-06-19T14:52:41.859Z,48.29
2018-06-19T14:55:11.454Z,48.47
2018-06-19T14:57:40.875Z,48.05
2018-06-19T15:00:10.628Z,48.52
2018-06-19T15:02:39.479Z,48.16
2018-06-19T15:05:08.469Z,47.72
2018-06-19T15:07:47.316Z,47.68
2018-06-19T15:10:16.317Z,48.23
2018-06-19T15:12:44.834Z,47.55
2018-06-19T15:15:13.381Z,47.92
2018-06-19T15:17:42.256Z,48.30
2018-06-19T15:20:11.667Z,48.21
2018-06-19T15:22:40.209Z,48.06
2018-06-19T15:25:09.801Z,47.53
2018-06-19T15:27:38.456Z,47.70
2018-06-19T15:30:07.494Z,48.14
2018-06-19T15:32:36.792Z,47.55
2018-06-19T15:35:05.310Z,47.23
2018-06-19T15:37:33.982Z,47.97
2018-06-19T15:40:03.095Z,47.80
2018-06-19T15:42:32.157Z,47.49
2018-06-19T15:45:00.727Z,47.93
2018-06-19T15:47:29.720Z,47.06
2018-06-19T15:49:58.857Z,47.72
2018-06-19T15:52:28.122Z,47.08
2018-06-19T15:54:56.664Z,46.92
2018-06-19T15:57:25.290Z,48.01
2018-06-19T15:59:53.794Z,48.17
2018-06-19T16:02:22.336Z,48.67
2018-06-19T16:04:51.032Z,47.84
2018-06-19T16:07:21.376Z,47.83
2018-06-19T16:09:49.981Z,48.01
2018-06-19T16:12:21.877Z,48.65
2018-06-19T16:14:50.630Z,48.78
2018-06-19T16:17:19.170Z,48.80
2018-06-19T16:19:47.715Z,48.11
2018-06-19T16:22:16.247Z,48.22
2018-06-19T16:24:44.689Z,49.12
2018-06-19T16:27:13.121Z,48.35
2018-06-19T16:29:41.572Z,49.44
2018-06-19T16:32:10.110Z,49.12
2018-06-19T16:34:39.528Z,48.81
2018-06-19T16:37:08.075Z,48.83
2018-06-19T16:39:36.542Z,49.68
2018-06-19T16:42:05.067Z,49.10
2018-06-19T16:44:34.334Z,49.15
2018-06-19T16:47:02.767Z,49.75
2018-06-19T16:49:31.565Z,49.54
2018-06-19T16:52:00.132Z,49.72
2018-06-19T16:54:28.706Z,49.41
2018-06-19T16:56:58.050Z,49.00
2018-06-19T16:59:26.489Z,48.46
2018-06-19T17:01:54.989Z,49.09
2018-06-19T17:04:23.440Z,48.54
2018-06-19T17:06:52.322Z,48.33
2018-06-19T17:09:20.786Z,48.70
2018-06-19T17:11:49.325Z,48.87
2018-06-19T17:14:21.682Z,48.73
2018-06-19T17:16:50.373Z,48.58
2018-06-19T17:19:19.741Z,47.98
2018-06-19T17:21:48.293Z,48.18
2018-06-19T17:24:16.765Z,47.77
2018-06-19T17:26:45.312Z,47.82
2018-06-19T17:29:13.834Z,47.91
2018-06-19T17:31:42.987Z,48.04
2018-06-19T17:34:11.909Z,49.04
2018-06-19T17:36:40.381Z,48.59
2018-06-19T17:39:10.967Z,48.42
2018-06-19T17:41:40.341Z,48.53
2018-06-19T17:44:08.964Z,48.79
2018-06-19T17:46:38.462Z,49.52
2018-06-19T17:49:06.993Z,48.94
2018-06-19T17:51:35.510Z,48.84
2018-06-19T17:54:03.966Z,49.58
2018-06-19T17:56:32.435Z,49.55
2018-06-19T17:59:00.890Z,49.77
2018-06-19T18:01:29.434Z,50.20
2018-06-19T18:03:57.876Z,49.32
2018-06-19T18:06:26.429Z,50.35
2018-06-19T18:08:54.933Z,49.85
2018-06-19T18:11:23.924Z,50.04
2018-06-19T18:13:52.474Z,50.13
2018-06-19T18:16:21.001Z,50.48
2018-06-19T18:18:49.473Z,50.33
2018-06-19T18:21:17.939Z,50.73
2018-06-19T18:23:46.903Z,49.89
2018-06-19T18:26:15.608Z,50.24
2018-06-19T18:28:44.125Z,50.37
2018-06-19T18:31:12.567Z,50.47
2018-06-19T18:33:41.017Z,49.73
2018-06-19T18:36:09.467Z,50.39
2018-06-19T18:38:38.133Z,50.41
2018-06-19T18:41:06.813Z,49.89
2018-06-19T18:43:35.854Z,50.75
2018-06-19T18:46:04.461Z,49.96
2018-06-19T18:48:33.026Z,49.89
2018-06-19T18:51:01.765Z,50.40
2018-06-19T18:53:30.213Z,50.45
2018-06-19T18:55:58.671Z,50.78
2018-06-19T18:58:27.331Z,50.31
2018-06-19T19:00:55.825Z,50.84
2018-06-19T19:03:24.256Z,50.07
2018-06-19T19:05:52.791Z,50.07
2018-06-19T19:08:23.447Z,50.51
2018-06-19T19:10:54.701Z,50.87
2018-06-19T19:13:24.740Z,50.83
2018-06-19T19:15:58.500Z,50.73
2018-06-19T19:18:32.337Z,51.00
2018-06-19T19:21:01.424Z,50.56
2018-06-19T19:23:30.276Z,51.04
2018-06-19T19:25:58.889Z,51.06
2018-06-19T19:28:32.862Z,51.17
2018-06-19T19:31:01.360Z,51.21
2018-06-19T19:33:29.816Z,50.96
2018-06-19T19:35:58.477Z,51.05
2018-06-19T19:38:32.303Z,51.13
2018-06-19T19:41:01.112Z,50.49
2018-06-19T19:43:29.621Z,51.13
2018-06-19T19:45:58.893Z,51.04
2018-06-19T19:48:34.833Z,50.41
2018-06-19T19:51:03.263Z,50.55
2018-06-19T19:53:31.706Z,51.40
2018-06-19T19:57:08.427Z,50.61
2018-06-19T19:59:36.966Z,51.18
2018-06-19T20:02:05.560Z,50.44
2018-06-19T20:04:34.044Z,50.75
2018-06-19T20:07:03.339Z,50.45
2018-06-19T20:09:31.983Z,50.41
2018-06-19T20:12:00.504Z,50.70
2018-06-19T20:14:28.972Z,50.54
2018-06-19T20:16:57.992Z,51.23
2018-06-19T20:19:26.563Z,50.66
2018-06-19T20:21:54.977Z,50.94
2018-06-19T20:24:24.158Z,51.45
2018-06-19T20:26:53.025Z,51.48
2018-06-19T20:29:21.632Z,51.44
2018-06-19T20:31:50.094Z,50.68
2018-06-19T20:34:18.623Z,50.79
2018-06-19T20:36:47.869Z,50.89
2018-06-19T20:39:16.428Z,51.54
2018-06-19T20:41:44.868Z,50.78
2018-06-19T20:44:13.479Z,50.92
2018-06-19T20:46:42.145Z,50.70
2018-06-19T20:49:10.677Z,50.96
2018-06-19T20:51:39.153Z,51.95
2018-06-19T20:54:07.694Z,51.11
2018-06-19T20:56:36.764Z,51.15
2018-06-19T20:59:05.290Z,52.15
2018-06-19T21:01:33.809Z,52.33
2018-06-19T21:04:02.276Z,52.26
2018-06-19T21:06:30.771Z,51.62
2018-06-19T21:08:59.297Z,51.69
2018-06-19T21:11:27.724Z,52.00
2018-06-19T21:13:56.227Z,52.25
2018-06-19T21:16:25.149Z,52.41
2018-06-19T21:18:53.656Z,52.54
2018-06-19T21:21:22.973Z,51.76
2018-06-19T21:23:51.425Z,51.99
2018-06-19T21:26:20.274Z,52.47
2018-06-19T21:28:49.292Z,51.72
2018-06-19T21:31:17.856Z,50.92
2018-06-19T21:33:46.348Z,51.52
2018-06-19T21:36:14.839Z,50.90
2018-06-19T21:38:43.394Z,50.92
2018-06-19T21:41:11.836Z,51.13
2018-06-19T21:43:40.392Z,50.17
2018-06-19T21:46:08.838Z,50.34
2018-06-19T21:48:37.352Z,49.95
2018-06-19T21:51:05.805Z,50.59
2018-06-19T21:53:34.336Z,50.59
2018-06-19T21:56:03.403Z,50.44
2018-06-19T21:58:31.845Z,49.70
2018-06-19T22:01:00.575Z,49.61
2018-06-19T22:03:29.532Z,50.33
2018-06-19T22:05:57.952Z,49.57
2018-06-19T22:08:33.539Z,49.46
2018-06-19T22:11:02.061Z,49.50
2018-06-19T22:13:30.494Z,49.85
2018-06-19T22:15:59.005Z,49.41
2018-06-19T22:18:27.436Z,49.27
2018-06-19T22:20:55.922Z,49.27
2018-06-19T22:23:24.521Z,49.95
2018-06-19T22:25:53.240Z,49.88
2018-06-19T22:28:22.362Z,49.36
2018-06-19T22:30:51.264Z,49.86
2018-06-19T22:33:20.045Z,49.85
2018-06-19T22:35:48.582Z,48.98
2018-06-19T22:38:17.081Z,49.75
2018-06-19T22:40:45.517Z,49.72
2018-06-19T22:43:13.959Z,48.99
2018-06-19T22:45:42.468Z,49.33
2018-06-19T22:48:10.883Z,49.75
2018-06-19T22:50:39.501Z,48.93
2018-06-19T22:53:08.014Z,49.60
2018-06-19T22:55:36.530Z,49.58
2018-06-19T22:58:05.098Z,48.76
2018-06-19T23:00:33.529Z,49.21
2018-06-19T23:03:05.029Z,49.12
2018-06-19T23:05:34.806Z,49.11
2018-06-19T23:08:03.215Z,48.67
2018-06-19T23:10:31.713Z,48.64
2018-06-19T23:13:01.514Z,49.39
2018-06-19T23:15:30.046Z,49.49
2018-06-19T23:17:59.312Z,49.47
2018-06-19T23:20:27.754Z,49.29
2018-06-19T23:22:56.189Z,48.73
2018-06-19T23:25:25.243Z,49.42
2018-06-19T23:27:53.802Z,49.38
2018-06-19T23:30:27.477Z,48.57
2018-06-19T23:32:56.051Z,49.29
2018-06-19T23:35:24.784Z,48.53
2018-06-19T23:37:53.193Z,48.54
2018-06-19T23:40:21.625Z,48.78
2018-06-19T23:42:50.091Z,48.70
2018-06-19T23:45:18.672Z,48.48
2018-06-19T23:47:47.192Z,49.25
2018-06-19T23:50:18.037Z,48.50
2018-06-19T23:52:46.554Z,48.88
2018-06-19T23:55:15.403Z,48.68
2018-06-19T23:57:43.892Z,48.63
